Gonggar, China
Current Conditions -  °F | °C
As of 2:50 PM on Sunday 26 Oct 2014 (Local Time) from VNKT Reporting Station
Scattered Clouds Scattered Clouds  
Wind Chill: 72°   Ceiling: Unl
Heat Index: 72°   Visibility: 6mi
Dew Point: 52°   Wind: 7mph
Humidity: 50%   Direction: 210°SSW
Pressure: 30.18"   Gusts: NA
Location:  29.25°N, 90.83°E
Report Text: VNKT 260650Z 21006KT 9999 FEW020 SCT030 22/11 Q1022 NOSIG
Loading
Personal Weather Stations






























Interactive Weather Map
Tropical Storm Tracking
New forecast layout! Learn more

10-Day Weather Forecast

Advertisements
Track Severe Weather on mobile